Time;durP1;ratioP1;P1;durP2;ratioP2;P2;SDS_P1;SDS_P2;PMS_P1;PMS_P2;Temp;Humidity;BMP_temperature;BMP_pressure;BME280_temperature;BME280_humidity;BME280_pressure;Samples;Min_cycle;Max_cycle;Signal;HPM_P1;HPM_P2
2022/07/25 00:00:11;;;;;;;86.30;14.77;;;;;;;;;;5070564;28;20477;-79
2022/07/25 00:02:37;;;;;;;33.03;12.05;;;;;;;;;;5070187;28;20033;-81
2022/07/25 00:05:04;;;;;;;40.67;12.73;;;;;;;;;;5077540;28;20057;-81
2022/07/25 00:07:31;;;;;;;51.75;13.60;;;;;;;;;;5063714;28;20049;-81
2022/07/25 00:09:57;;;;;;;43.25;11.85;;;;;;;;;;5073206;28;20128;-81
2022/07/25 00:12:24;;;;;;;40.03;11.68;;;;;;;;;;5075809;28;20119;-81
2022/07/25 00:14:50;;;;;;;48.70;12.25;;;;;;;;;;5069294;28;20091;-81
2022/07/25 00:17:17;;;;;;;27.23;11.18;;;;;;;;;;5074856;28;20047;-81
2022/07/25 00:19:43;;;;;;;29.75;11.05;;;;;;;;;;5071392;28;20036;-81
2022/07/25 00:22:10;;;;;;;37.10;11.43;;;;;;;;;;5071122;28;20045;-81
2022/07/25 00:24:37;;;;;;;22.85;9.75;;;;;;;;;;5076233;28;20064;-81
2022/07/25 00:27:03;;;;;;;34.55;10.57;;;;;;;;;;5074402;28;20037;-81
2022/07/25 00:29:30;;;;;;;48.72;12.05;;;;;;;;;;5070794;28;20127;-73
2022/07/25 00:31:56;;;;;;;73.18;14.60;;;;;;;;;;5070150;28;20048;-72
2022/07/25 00:34:23;;;;;;;36.83;12.80;;;;;;;;;;5069863;28;20058;-72
2022/07/25 00:36:49;;;;;;;40.15;12.55;;;;;;;;;;5067183;28;20062;-71
2022/07/25 00:39:16;;;;;;;64.25;13.25;;;;;;;;;;5067891;28;20557;-72
2022/07/25 00:41:43;;;;;;;66.60;14.02;;;;;;;;;;5051526;28;20457;-71
2022/07/25 00:44:20;;;;;;;36.17;12.35;;;;;;;;;;5072378;28;20075;-71
2022/07/25 00:46:50;;;;;;;23.23;10.88;;;;;;;;;;5071166;28;20032;-71
2022/07/25 00:49:16;;;;;;;37.33;14.02;;;;;;;;;;5067288;28;20063;-72
2022/07/25 00:51:43;;;;;;;49.65;13.90;;;;;;;;;;5066665;28;20040;-72
2022/07/25 00:54:10;;;;;;;85.95;16.23;;;;;;;;;;5067905;28;20058;-72
2022/07/25 00:56:37;;;;;;;53.90;13.98;;;;;;;;;;5068158;28;20033;-72
2022/07/25 00:59:03;;;;;;;53.58;14.80;;;;;;;;;;5070953;28;20124;-72
2022/07/25 01:01:30;;;;;;;38.33;15.63;;;;;;;;;;5067010;28;20051;-72
2022/07/25 01:03:57;;;;;;;53.20;17.65;;;;;;;;;;5066900;28;20086;-73
2022/07/25 01:06:24;;;;;;;60.40;15.68;;;;;;;;;;5066828;28;20043;-72
2022/07/25 01:08:51;;;;;;;53.67;18.02;;;;;;;;;;5067452;28;20119;-72
2022/07/25 01:11:18;;;;;;;60.08;17.90;;;;;;;;;;5070991;28;20072;-71
2022/07/25 01:13:44;;;;;;;46.85;16.33;;;;;;;;;;5067621;28;20044;-72
2022/07/25 01:16:11;;;;;;;67.55;17.55;;;;;;;;;;5066756;28;20131;-71
2022/07/25 01:18:37;;;;;;;43.90;15.48;;;;;;;;;;5067061;28;20049;-71
2022/07/25 01:21:04;;;;;;;44.33;16.10;;;;;;;;;;5066632;28;20035;-71
2022/07/25 01:23:31;;;;;;;68.78;17.05;;;;;;;;;;5068194;28;20036;-72
2022/07/25 01:25:57;;;;;;;43.05;15.52;;;;;;;;;;5069822;28;20115;-72
2022/07/25 01:28:24;;;;;;;51.88;15.30;;;;;;;;;;5066575;28;20055;-72
2022/07/25 01:30:50;;;;;;;40.53;15.07;;;;;;;;;;5066322;28;20550;-70
2022/07/25 01:33:18;;;;;;;52.97;15.35;;;;;;;;;;5066652;28;20115;-69
2022/07/25 01:35:45;;;;;;;57.90;15.60;;;;;;;;;;5067160;28;20064;-69
2022/07/25 01:38:12;;;;;;;45.25;16.08;;;;;;;;;;5066549;28;20135;-69
2022/07/25 01:40:39;;;;;;;37.55;14.32;;;;;;;;;;5066505;28;20045;-69
2022/07/25 01:43:05;;;;;;;47.80;15.07;;;;;;;;;;5066346;28;20127;-70
2022/07/25 01:45:32;;;;;;;54.97;14.48;;;;;;;;;;5066517;28;20032;-70
2022/07/25 01:47:59;;;;;;;63.15;17.23;;;;;;;;;;5068524;28;20138;-73
2022/07/25 01:50:25;;;;;;;58.40;16.13;;;;;;;;;;5068077;28;20079;-75
2022/07/25 01:52:52;;;;;;;71.03;18.08;;;;;;;;;;5067803;28;20045;-71
2022/07/25 01:55:18;;;;;;;50.85;17.17;;;;;;;;;;5066362;28;20513;-71
2022/07/25 01:57:45;;;;;;;53.13;17.45;;;;;;;;;;5066690;28;20036;-71
2022/07/25 02:00:16;;;;;;;63.15;17.27;;;;;;;;;;5070382;28;20410;-73
2022/07/25 02:02:42;;;;;;;68.40;18.75;;;;;;;;;;5071287;28;20443;-70
2022/07/25 02:05:10;;;;;;;55.00;18.40;;;;;;;;;;5074976;28;20048;-71
2022/07/25 02:07:37;;;;;;;64.35;18.38;;;;;;;;;;5069946;28;20047;-66
2022/07/25 02:10:04;;;;;;;43.38;17.02;;;;;;;;;;5071552;28;20045;-78
2022/07/25 02:12:31;;;;;;;56.15;17.17;;;;;;;;;;5073821;28;20494;-76
2022/07/25 02:14:57;;;;;;;83.53;17.95;;;;;;;;;;5070427;28;20068;-75
2022/07/25 02:17:24;;;;;;;66.70;17.17;;;;;;;;;;5073622;28;20683;-67
2022/07/25 02:19:50;;;;;;;37.78;16.08;;;;;;;;;;5071581;28;20490;-70
2022/07/25 02:22:17;;;;;;;92.47;18.40;;;;;;;;;;5068882;28;20033;-69
2022/07/25 02:24:44;;;;;;;35.67;15.43;;;;;;;;;;5070108;28;20115;-74
2022/07/25 02:27:10;;;;;;;40.78;15.00;;;;;;;;;;5070051;28;20036;-70
2022/07/25 02:29:37;;;;;;;78.22;17.23;;;;;;;;;;5071176;28;20168;-71
2022/07/25 02:32:03;;;;;;;46.28;15.10;;;;;;;;;;5073053;28;20620;-71
2022/07/25 02:34:30;;;;;;;37.70;15.63;;;;;;;;;;5071758;28;20037;-71
2022/07/25 02:36:56;;;;;;;82.90;18.33;;;;;;;;;;5069303;28;20036;-69
2022/07/25 02:39:24;;;;;;;45.67;15.15;;;;;;;;;;5069418;28;20040;-70
2022/07/25 02:41:50;;;;;;;88.55;27.38;;;;;;;;;;5069834;28;20037;-67
2022/07/25 02:44:17;;;;;;;90.25;25.00;;;;;;;;;;5073876;28;20119;-66
2022/07/25 02:46:43;;;;;;;109.05;36.72;;;;;;;;;;5069845;28;20506;-68
2022/07/25 02:49:11;;;;;;;85.55;26.30;;;;;;;;;;5069138;28;20037;-67
2022/07/25 02:51:38;;;;;;;114.32;27.52;;;;;;;;;;5068714;28;20098;-67
2022/07/25 02:54:05;;;;;;;54.83;18.33;;;;;;;;;;5069390;28;20048;-67
2022/07/25 02:56:32;;;;;;;69.60;18.55;;;;;;;;;;5071596;28;20056;-67
2022/07/25 02:58:58;;;;;;;84.47;18.48;;;;;;;;;;5071984;28;20048;-69
2022/07/25 03:01:25;;;;;;;55.80;18.70;;;;;;;;;;5069082;28;20064;-69
2022/07/25 03:03:52;;;;;;;59.88;18.85;;;;;;;;;;5069621;28;20056;-68
2022/07/25 03:06:19;;;;;;;74.07;20.42;;;;;;;;;;5068643;28;20041;-65
2022/07/25 03:08:45;;;;;;;69.70;18.80;;;;;;;;;;5069291;28;20041;-68
2022/07/25 03:11:12;;;;;;;70.97;18.52;;;;;;;;;;5073006;28;20045;-67
2022/07/25 03:13:39;;;;;;;58.53;16.98;;;;;;;;;;5069143;28;20466;-66
2022/07/25 03:16:05;;;;;;;50.00;16.45;;;;;;;;;;5068864;28;20123;-65
2022/07/25 03:18:32;;;;;;;40.10;15.45;;;;;;;;;;5068663;28;20072;-64
2022/07/25 03:20:58;;;;;;;99.63;25.05;;;;;;;;;;5068385;28;20036;-64
2022/07/25 03:23:27;;;;;;;67.38;19.92;;;;;;;;;;5071869;28;20124;-64
2022/07/25 03:25:54;;;;;;;72.88;22.77;;;;;;;;;;5070770;28;20060;-65
2022/07/25 03:28:20;;;;;;;89.50;24.55;;;;;;;;;;5068005;28;20120;-65
2022/07/25 03:30:47;;;;;;;63.90;25.23;;;;;;;;;;5068543;28;20126;-65
2022/07/25 03:33:13;;;;;;;71.95;31.80;;;;;;;;;;5068556;28;20114;-65
2022/07/25 03:35:40;;;;;;;100.00;47.75;;;;;;;;;;5069389;28;20120;-69
2022/07/25 03:38:06;;;;;;;89.85;44.78;;;;;;;;;;5071900;28;20062;-67
2022/07/25 03:40:33;;;;;;;117.82;43.85;;;;;;;;;;5068167;28;20056;-69
2022/07/25 03:42:59;;;;;;;124.35;42.03;;;;;;;;;;5068457;28;20041;-69
2022/07/25 03:45:26;;;;;;;96.68;33.65;;;;;;;;;;5068546;28;20068;-70
2022/07/25 03:47:52;;;;;;;105.35;31.65;;;;;;;;;;5068152;28;20049;-70
2022/07/25 03:50:19;;;;;;;66.03;30.77;;;;;;;;;;5071445;28;20119;-69
2022/07/25 03:52:46;;;;;;;157.25;34.40;;;;;;;;;;5068649;28;20102;-70
2022/07/25 03:55:12;;;;;;;60.05;29.92;;;;;;;;;;5068674;28;20152;-70
2022/07/25 03:57:39;;;;;;;74.20;39.58;;;;;;;;;;5067904;28;20067;-70
2022/07/25 04:00:07;;;;;;;130.63;57.97;;;;;;;;;;5067999;28;20128;-70
2022/07/25 04:02:36;;;;;;;216.32;100.35;;;;;;;;;;5070858;28;20072;-70
2022/07/25 04:05:04;;;;;;;265.48;148.80;;;;;;;;;;5070976;28;20410;-71
2022/07/25 04:07:30;;;;;;;228.07;98.72;;;;;;;;;;5067684;28;20040;-68
2022/07/25 04:09:57;;;;;;;91.38;43.67;;;;;;;;;;5067523;28;20553;-68
2022/07/25 04:12:24;;;;;;;63.85;23.73;;;;;;;;;;5068157;28;20112;-67
2022/07/25 04:14:50;;;;;;;72.72;19.98;;;;;;;;;;5069947;28;20048;-67
2022/07/25 04:17:17;;;;;;;42.92;15.02;;;;;;;;;;5072490;28;20143;-65
2022/07/25 04:19:45;;;;;;;29.67;11.50;;;;;;;;;;5067931;28;20049;-65
2022/07/25 04:22:12;;;;;;;54.47;11.25;;;;;;;;;;5066157;28;20155;-65
2022/07/25 04:24:38;;;;;;;27.65;9.10;;;;;;;;;;5067405;28;20079;-65
2022/07/25 04:27:05;;;;;;;54.03;8.73;;;;;;;;;;5067577;28;20049;-66
2022/07/25 04:29:31;;;;;;;100.65;11.38;;;;;;;;;;5069773;28;20123;-68
2022/07/25 04:31:58;;;;;;;20.55;6.57;;;;;;;;;;5069066;28;20049;-68
2022/07/25 04:34:25;;;;;;;45.75;7.38;;;;;;;;;;5067527;28;20040;-65
2022/07/25 04:36:51;;;;;;;30.63;7.22;;;;;;;;;;5067254;28;20039;-64
2022/07/25 04:39:18;;;;;;;28.77;7.22;;;;;;;;;;5066872;28;20139;-64
2022/07/25 04:41:44;;;;;;;36.28;7.72;;;;;;;;;;5069576;28;20913;-65
2022/07/25 04:44:11;;;;;;;50.75;8.27;;;;;;;;;;5071472;28;20083;-65
2022/07/25 04:46:39;;;;;;;32.15;7.30;;;;;;;;;;5067227;28;20040;-64
2022/07/25 04:49:05;;;;;;;24.98;5.60;;;;;;;;;;5067284;28;20078;-64
2022/07/25 04:51:32;;;;;;;48.70;8.05;;;;;;;;;;5066959;28;20036;-65
2022/07/25 04:53:58;;;;;;;24.65;5.70;;;;;;;;;;5066685;28;20115;-64
2022/07/25 04:56:25;;;;;;;36.67;6.32;;;;;;;;;;5070794;28;20045;-66
2022/07/25 04:58:51;;;;;;;42.30;7.30;;;;;;;;;;5068313;28;20075;-65
2022/07/25 05:01:18;;;;;;;29.85;6.38;;;;;;;;;;5066450;28;20048;-66
2022/07/25 05:03:45;;;;;;;13.88;5.20;;;;;;;;;;5066846;28;20509;-66
2022/07/25 05:06:16;;;;;;;58.25;7.53;;;;;;;;;;5066537;28;20044;-66
2022/07/25 05:08:42;;;;;;;28.25;5.65;;;;;;;;;;5068253;28;20052;-66
2022/07/25 05:11:09;;;;;;;22.42;5.65;;;;;;;;;;5070732;28;20122;-66
2022/07/25 05:13:35;;;;;;;38.17;5.68;;;;;;;;;;5066554;28;20047;-70
2022/07/25 05:16:02;;;;;;;21.70;5.63;;;;;;;;;;5066298;28;20483;-68
2022/07/25 05:18:29;;;;;;;40.28;6.00;;;;;;;;;;5066547;28;20047;-65
2022/07/25 05:20:55;;;;;;;46.92;6.53;;;;;;;;;;5067115;28;20049;-68
2022/07/25 05:23:21;;;;;;;46.45;6.40;;;;;;;;;;5070274;28;20506;-69
2022/07/25 05:25:48;;;;;;;73.65;10.15;;;;;;;;;;5067394;28;20047;-70
2022/07/25 05:28:16;;;;;;;48.33;5.82;;;;;;;;;;5066287;28;20502;-70
2022/07/25 05:30:43;;;;;;;16.20;4.45;;;;;;;;;;5068432;28;20088;-69
2022/07/25 05:33:09;;;;;;;17.60;4.30;;;;;;;;;;5068558;28;20032;-69
2022/07/25 05:35:36;;;;;;;44.60;5.88;;;;;;;;;;5068472;28;20147;-70
2022/07/25 05:38:03;;;;;;;19.98;4.40;;;;;;;;;;5069239;28;20067;-69
2022/07/25 05:40:30;;;;;;;21.92;4.65;;;;;;;;;;5066477;28;20044;-70
2022/07/25 05:42:56;;;;;;;28.33;4.45;;;;;;;;;;5066778;28;20049;-69
2022/07/25 05:45:28;;;;;;;27.00;4.30;;;;;;;;;;5066293;28;20111;-68
2022/07/25 05:47:55;;;;;;;28.42;4.43;;;;;;;;;;5066184;28;20496;-69
2022/07/25 05:50:21;;;;;;;58.67;6.38;;;;;;;;;;5070626;28;20123;-66
2022/07/25 05:52:48;;;;;;;10.75;3.80;;;;;;;;;;5070489;28;20051;-66
2022/07/25 05:55:14;;;;;;;33.08;5.13;;;;;;;;;;5064950;28;20075;-67
2022/07/25 05:57:41;;;;;;;25.67;3.63;;;;;;;;;;5066134;28;20043;-67
2022/07/25 06:00:08;;;;;;;35.53;4.97;;;;;;;;;;5066132;28;20049;-67
2022/07/25 06:02:34;;;;;;;33.67;4.88;;;;;;;;;;5069287;28;20032;-66
2022/07/25 06:05:01;;;;;;;22.20;4.22;;;;;;;;;;5068633;28;20098;-68
2022/07/25 06:07:28;;;;;;;32.22;4.35;;;;;;;;;;5065785;28;20763;-67
2022/07/25 06:09:54;;;;;;;72.07;6.75;;;;;;;;;;5066035;28;20036;-68
2022/07/25 06:12:21;;;;;;;16.60;3.28;;;;;;;;;;5066340;28;20115;-68
2022/07/25 06:14:49;;;;;;;17.70;3.63;;;;;;;;;;5066596;28;20140;-68
2022/07/25 06:17:16;;;;;;;41.25;4.82;;;;;;;;;;5070876;28;20048;-68
2022/07/25 06:19:42;;;;;;;20.85;3.70;;;;;;;;;;5066032;28;20076;-68
2022/07/25 06:22:10;;;;;;;41.53;4.53;;;;;;;;;;5066084;28;20047;-67
2022/07/25 06:24:37;;;;;;;18.90;3.47;;;;;;;;;;5065792;28;20075;-70
2022/07/25 06:27:04;;;;;;;30.88;4.50;;;;;;;;;;5065941;28;20509;-71
2022/07/25 06:29:30;;;;;;;59.13;5.45;;;;;;;;;;5068502;28;20072;-67
2022/07/25 06:31:57;;;;;;;52.45;5.28;;;;;;;;;;5067534;28;20052;-71
2022/07/25 06:34:23;;;;;;;41.58;4.88;;;;;;;;;;5066379;28;20399;-68
2022/07/25 06:36:54;;;;;;;26.38;3.60;;;;;;;;;;5065944;28;20033;-73
2022/07/25 06:39:20;;;;;;;20.10;3.22;;;;;;;;;;5065693;28;20451;-72
2022/07/25 06:41:47;;;;;;;45.33;5.28;;;;;;;;;;5066409;28;20037;-72
2022/07/25 06:44:16;;;;;;;34.47;4.45;;;;;;;;;;5070501;28;20179;-72
2022/07/25 06:46:42;;;;;;;49.17;5.30;;;;;;;;;;5069306;28;20064;-75
2022/07/25 06:49:09;;;;;;;36.58;4.75;;;;;;;;;;5069569;28;20124;-72
2022/07/25 06:51:35;;;;;;;50.33;5.55;;;;;;;;;;5069132;28;20028;-68
2022/07/25 06:54:02;;;;;;;29.25;4.50;;;;;;;;;;5068944;28;20418;-71
2022/07/25 06:56:31;;;;;;;33.10;4.35;;;;;;;;;;5072434;28;20055;-72
2022/07/25 06:58:58;;;;;;;24.73;3.58;;;;;;;;;;5071140;28;20089;-71
2022/07/25 07:01:24;;;;;;;14.75;3.10;;;;;;;;;;5069388;28;20044;-72
2022/07/25 07:03:51;;;;;;;39.50;4.85;;;;;;;;;;5068991;28;20040;-72
2022/07/25 07:06:18;;;;;;;44.20;4.97;;;;;;;;;;5068884;28;20044;-72
2022/07/25 07:08:44;;;;;;;16.17;3.40;;;;;;;;;;5070078;28;22862;-72
2022/07/25 07:11:14;;;;;;;39.20;4.88;;;;;;;;;;5072704;28;20089;-72
2022/07/25 07:13:40;;;;;;;32.58;4.57;;;;;;;;;;5069754;28;20623;-72
2022/07/25 07:16:07;;;;;;;28.45;4.50;;;;;;;;;;5066625;28;20040;-72
2022/07/25 07:18:33;;;;;;;25.35;3.85;;;;;;;;;;5068847;28;20036;-72
2022/07/25 07:21:00;;;;;;;46.08;4.90;;;;;;;;;;5068505;28;20502;-72
2022/07/25 07:23:26;;;;;;;38.38;4.70;;;;;;;;;;5072244;28;20123;-72
2022/07/25 07:25:54;;;;;;;99.57;8.23;;;;;;;;;;5070010;28;20072;-72
2022/07/25 07:28:21;;;;;;;41.53;5.75;;;;;;;;;;5068769;28;20045;-72
2022/07/25 07:30:47;;;;;;;16.38;3.60;;;;;;;;;;5068944;28;20514;-72
2022/07/25 07:33:35;;;;;;;53.00;5.57;;;;;;;;;;5068284;28;20033;-72
2022/07/25 07:36:02;;;;;;;32.75;4.22;;;;;;;;;;5073076;28;20079;-73
2022/07/25 07:38:29;;;;;;;32.80;4.90;;;;;;;;;;5071934;28;20443;-70
2022/07/25 07:40:55;;;;;;;35.65;4.95;;;;;;;;;;5067352;28;20054;-72
2022/07/25 07:43:22;;;;;;;27.20;4.18;;;;;;;;;;5068332;28;20036;-71
2022/07/25 07:45:55;;;;;;;35.95;5.85;;;;;;;;;;5068456;28;20109;-72
2022/07/25 07:48:22;;;;;;;51.47;5.45;;;;;;;;;;5068196;28;20039;-71
2022/07/25 07:50:48;;;;;;;26.38;4.32;;;;;;;;;;5068621;28;20116;-71
2022/07/25 07:53:15;;;;;;;47.15;5.95;;;;;;;;;;5072359;28;20498;-71
2022/07/25 07:55:46;;;;;;;64.50;26.33;;;;;;;;;;5067712;28;20040;-71
2022/07/25 07:58:14;;;;;;;28.90;4.40;;;;;;;;;;5068642;28;20040;-71
2022/07/25 08:00:41;;;;;;;29.27;4.22;;;;;;;;;;5067504;28;20327;-71
2022/07/25 08:03:08;;;;;;;37.17;4.53;;;;;;;;;;5068498;28;20509;-72
2022/07/25 08:05:37;;;;;;;37.58;4.47;;;;;;;;;;5070872;28;20159;-71
2022/07/25 08:08:04;;;;;;;27.40;4.20;;;;;;;;;;5070042;28;20509;-71
2022/07/25 08:10:31;;;;;;;13.85;3.22;;;;;;;;;;5067991;28;20075;-72
2022/07/25 08:12:58;;;;;;;36.70;4.55;;;;;;;;;;5067563;28;20163;-71
2022/07/25 08:15:25;;;;;;;57.13;5.57;;;;;;;;;;5067630;28;20040;-71
2022/07/25 08:17:52;;;;;;;31.15;4.25;;;;;;;;;;5051936;28;20052;-71
2022/07/25 08:20:21;;;;;;;45.25;4.78;;;;;;;;;;5068025;28;20047;-71
2022/07/25 08:23:03;;;;;;;45.33;4.75;;;;;;;;;;5069537;28;20489;-71
2022/07/25 08:25:30;;;;;;;27.25;4.20;;;;;;;;;;5067376;28;20123;-71
2022/07/25 08:27:57;;;;;;;26.58;4.32;;;;;;;;;;5067477;28;20040;-71
2022/07/25 08:30:24;;;;;;;56.13;5.53;;;;;;;;;;5066753;28;25083;-71
2022/07/25 08:32:58;;;;;;;30.25;4.18;;;;;;;;;;5068111;28;20189;-71
2022/07/25 08:35:26;;;;;;;27.23;3.70;;;;;;;;;;5067872;28;20052;-71
2022/07/25 08:37:53;;;;;;;72.43;7.20;;;;;;;;;;5069527;28;20032;-71
2022/07/25 08:40:21;;;;;;;44.88;4.97;;;;;;;;;;5065616;28;20661;-71
2022/07/25 08:42:48;;;;;;;92.13;8.10;;;;;;;;;;5063651;28;20032;-70
2022/07/25 08:45:16;;;;;;;24.25;3.80;;;;;;;;;;5060956;28;20064;-71
2022/07/25 08:47:43;;;;;;;67.00;6.28;;;;;;;;;;5061988;28;20036;-70
2022/07/25 08:50:13;;;;;;;50.83;5.68;;;;;;;;;;5058524;28;20123;-71
2022/07/25 08:52:44;;;;;;;33.17;4.13;;;;;;;;;;5066683;28;20040;-71
2022/07/25 08:55:15;;;;;;;49.38;5.53;;;;;;;;;;5061167;28;20068;-71
2022/07/25 08:57:42;;;;;;;66.50;6.53;;;;;;;;;;5064928;28;20413;-71
2022/07/25 09:00:13;;;;;;;56.03;5.63;;;;;;;;;;5064947;28;20368;-71
2022/07/25 09:02:40;;;;;;;52.15;5.65;;;;;;;;;;5067313;28;20050;-69
2022/07/25 09:05:07;;;;;;;51.28;5.75;;;;;;;;;;5068930;28;20127;-71
2022/07/25 09:07:34;;;;;;;35.65;4.88;;;;;;;;;;5064786;28;20520;-71
2022/07/25 09:10:12;;;;;;;47.85;5.25;;;;;;;;;;5065703;28;20439;-70
2022/07/25 09:12:39;;;;;;;46.63;4.90;;;;;;;;;;5065229;28;20044;-71
2022/07/25 09:15:07;;;;;;;52.67;5.55;;;;;;;;;;5068329;28;20466;-71
2022/07/25 09:17:35;;;;;;;93.60;8.35;;;;;;;;;;5068212;28;20473;-70
2022/07/25 09:20:03;;;;;;;38.30;4.97;;;;;;;;;;5067663;28;20473;-70
2022/07/25 09:22:30;;;;;;;43.20;5.10;;;;;;;;;;5065350;28;20569;-70
2022/07/25 09:24:56;;;;;;;104.10;25.73;;;;;;;;;;5064901;28;20037;-70
2022/07/25 09:27:23;;;;;;;62.10;7.15;;;;;;;;;;5069202;28;20115;-70
2022/07/25 09:29:50;;;;;;;40.15;5.07;;;;;;;;;;5065385;28;20064;-71
2022/07/25 09:32:19;;;;;;;73.38;7.43;;;;;;;;;;5068507;28;20131;-70
2022/07/25 09:34:47;;;;;;;83.00;7.57;;;;;;;;;;5065612;28;20049;-70
2022/07/25 09:37:15;;;;;;;58.42;5.97;;;;;;;;;;5065176;28;20036;-71
2022/07/25 09:39:45;;;;;;;40.50;5.30;;;;;;;;;;5065147;28;20048;-70
2022/07/25 09:42:13;;;;;;;;;;;;;;;;;;5066869;28;20098;-70
2022/07/25 09:44:40;;;;;;;28.98;4.53;;;;;;;;;;5068577;28;20022;-70
2022/07/25 09:47:10;;;;;;;49.50;5.60;;;;;;;;;;5069110;28;20064;-71
2022/07/25 09:49:40;;;;;;;17.92;3.67;;;;;;;;;;5066437;28;20090;-70
2022/07/25 09:52:07;;;;;;;22.50;4.22;;;;;;;;;;5066254;28;20041;-70
2022/07/25 09:54:34;;;;;;;39.55;5.50;;;;;;;;;;5066117;28;20111;-71
2022/07/25 09:57:01;;;;;;;30.17;4.65;;;;;;;;;;5066316;28;20052;-70
2022/07/25 09:59:27;;;;;;;37.25;12.02;;;;;;;;;;5070407;28;20481;-70
2022/07/25 10:02:20;;;;;;;40.90;5.43;;;;;;;;;;5067470;28;20072;-70
2022/07/25 10:04:58;;;;;;;45.55;5.78;;;;;;;;;;5066036;28;20494;-70
2022/07/25 10:07:25;;;;;;;33.78;4.90;;;;;;;;;;5067321;28;20044;-71
2022/07/25 10:09:58;;;;;;;16.38;3.88;;;;;;;;;;5066127;28;20104;-71
2022/07/25 10:12:24;;;;;;;63.65;6.97;;;;;;;;;;5066069;28;20127;-71
2022/07/25 10:15:05;;;;;;;69.18;7.10;;;;;;;;;;5066554;28;20399;-70
2022/07/25 10:17:31;;;;;;;52.78;6.13;;;;;;;;;;5067149;28;20044;-70
2022/07/25 10:20:00;;;;;;;22.10;4.43;;;;;;;;;;5067989;28;20049;-70
2022/07/25 10:22:43;;;;;;;36.63;5.07;;;;;;;;;;5069415;28;20131;-71
2022/07/25 10:25:22;;;;;;;18.83;2.88;;;;;;;;;;5070820;28;20499;-70
2022/07/25 10:27:51;;;;;;;13.45;2.60;;;;;;;;;;5069715;28;20072;-70
2022/07/25 10:30:19;;;;;;;46.30;5.03;;;;;;;;;;5069372;28;20075;-70
2022/07/25 10:33:09;;;;;;;19.52;4.20;;;;;;;;;;5071627;28;20055;-69
2022/07/25 10:35:36;;;;;;;88.28;7.22;;;;;;;;;;5070085;28;20044;-70
2022/07/25 10:38:03;;;;;;;14.85;3.08;;;;;;;;;;5071365;28;20052;-70
2022/07/25 10:40:35;;;;;;;38.60;4.63;;;;;;;;;;5069464;28;20080;-70
2022/07/25 10:43:06;;;;;;;13.27;2.63;;;;;;;;;;5069385;28;20040;-70
2022/07/25 10:45:37;;;;;;;35.00;3.95;;;;;;;;;;5069643;28;20146;-70
2022/07/25 10:48:08;;;;;;;54.20;4.60;;;;;;;;;;5069682;28;20041;-69
2022/07/25 10:50:44;;;;;;;33.22;3.70;;;;;;;;;;5072257;28;20044;-70
2022/07/25 10:53:32;;;;;;;45.70;4.72;;;;;;;;;;5073715;28;20043;-70
2022/07/25 10:56:03;;;;;;;28.08;3.33;;;;;;;;;;5070859;28;20056;-69
2022/07/25 10:58:50;;;;;;;36.65;4.72;;;;;;;;;;5058899;28;20044;-70
2022/07/25 11:01:19;;;;;;;17.23;2.97;;;;;;;;;;5064249;28;20043;-70
2022/07/25 11:03:46;;;;;;;40.65;4.38;;;;;;;;;;5069059;28;20049;-70
2022/07/25 11:06:14;;;;;;;36.70;4.25;;;;;;;;;;5069013;28;20466;-69
2022/07/25 11:08:41;;;;;;;42.10;4.05;;;;;;;;;;5071287;28;20044;-69
2022/07/25 11:11:08;;;;;;;21.73;3.08;;;;;;;;;;5071648;28;20064;-70
2022/07/25 11:13:39;;;;;;;22.77;3.28;;;;;;;;;;5068947;28;20032;-70
2022/07/25 11:16:06;;;;;;;17.83;2.60;;;;;;;;;;5068946;28;20119;-70
2022/07/25 11:18:42;;;;;;;58.10;5.28;;;;;;;;;;5068287;28;20060;-70
2022/07/25 11:21:08;;;;;;;20.77;3.03;;;;;;;;;;5068856;28;20562;-69
2022/07/25 11:23:35;;;;;;;47.17;4.60;;;;;;;;;;5072202;28;20177;-70
2022/07/25 11:26:03;;;;;;;80.07;6.65;;;;;;;;;;5071163;28;20040;-70
2022/07/25 11:28:40;;;;;;;13.05;2.55;;;;;;;;;;5084483;28;20079;-69
2022/07/25 11:31:07;;;;;;;51.40;4.75;;;;;;;;;;5067736;28;20076;-70
2022/07/25 11:33:34;;;;;;;36.47;4.05;;;;;;;;;;5068723;28;20120;-70
2022/07/25 11:36:04;;;;;;;35.50;3.85;;;;;;;;;;5068825;28;20067;-69
2022/07/25 11:38:32;;;;;;;42.72;3.97;;;;;;;;;;5072206;28;20071;-70
2022/07/25 11:40:58;;;;;;;29.95;3.47;;;;;;;;;;5069636;28;20123;-71
2022/07/25 11:43:25;;;;;;;19.83;3.10;;;;;;;;;;5069032;28;20501;-70
2022/07/25 11:45:59;;;;;;;52.25;4.63;;;;;;;;;;5070288;28;20079;-71
2022/07/25 11:48:36;;;;;;;41.35;4.25;;;;;;;;;;5062271;28;20035;-72
2022/07/25 11:51:11;;;;;;;38.97;4.05;;;;;;;;;;5068310;28;20120;-72
2022/07/25 11:53:45;;;;;;;31.40;3.72;;;;;;;;;;5064246;28;20045;-71
2022/07/25 11:56:16;;;;;;;29.70;3.55;;;;;;;;;;5068371;28;20041;-72
2022/07/25 11:59:03;;;;;;;27.45;3.33;;;;;;;;;;5066660;28;20048;-72
2022/07/25 12:01:38;;;;;;;34.45;3.75;;;;;;;;;;5064697;28;20835;-72
2022/07/25 12:04:17;;;;;;;39.55;4.35;;;;;;;;;;5068045;28;20454;-72
2022/07/25 12:06:45;;;;;;;44.60;4.95;;;;;;;;;;5065292;28;20065;-72
2022/07/25 12:09:13;;;;;;;89.32;7.07;;;;;;;;;;5054972;28;20110;-72
2022/07/25 12:11:44;;;;;;;56.15;5.15;;;;;;;;;;5068192;28;20098;-72
2022/07/25 12:14:11;;;;;;;56.67;5.30;;;;;;;;;;5069107;28;20128;-72
2022/07/25 12:16:38;;;;;;;47.22;4.40;;;;;;;;;;5066399;28;20592;-72
2022/07/25 12:19:09;;;;;;;15.80;2.78;;;;;;;;;;5066826;28;20486;-72
2022/07/25 12:21:36;;;;;;;54.67;5.60;;;;;;;;;;5067041;28;20052;-73
2022/07/25 12:24:03;;;;;;;62.13;5.45;;;;;;;;;;5065507;28;20060;-74
2022/07/25 12:26:29;;;;;;;90.15;6.85;;;;;;;;;;5070035;28;20052;-72
2022/07/25 12:28:56;;;;;;;59.08;5.43;;;;;;;;;;5066362;28;20040;-72
2022/07/25 12:31:27;;;;;;;48.08;4.88;;;;;;;;;;5065408;28;20110;-72
2022/07/25 12:33:54;;;;;;;22.30;2.97;;;;;;;;;;5066837;28;20098;-72
2022/07/25 12:36:21;;;;;;;61.30;5.38;;;;;;;;;;5070416;28;20101;-72
2022/07/25 12:38:47;;;;;;;50.88;4.55;;;;;;;;;;5068711;28;20123;-72
2022/07/25 12:41:14;;;;;;;36.42;4.30;;;;;;;;;;5070122;28;20058;-72
2022/07/25 12:43:43;;;;;;;35.22;4.07;;;;;;;;;;5065849;28;20066;-72
2022/07/25 12:46:10;;;;;;;28.27;3.65;;;;;;;;;;5066880;28;20040;-72
2022/07/25 12:48:36;;;;;;;42.83;4.22;;;;;;;;;;5062520;28;20036;-73
2022/07/25 12:51:03;;;;;;;49.80;4.55;;;;;;;;;;5066774;28;20037;-72
2022/07/25 12:53:29;;;;;;;24.90;3.38;;;;;;;;;;5070802;28;20041;-72
2022/07/25 12:55:56;;;;;;;15.48;3.03;;;;;;;;;;5067093;28;20079;-72
2022/07/25 12:58:23;;;;;;;49.55;4.65;;;;;;;;;;5061831;28;20044;-73
2022/07/25 13:00:49;;;;;;;49.63;4.63;;;;;;;;;;5066367;28;20045;-73
2022/07/25 13:03:16;;;;;;;30.35;4.00;;;;;;;;;;5067154;28;20076;-72
2022/07/25 13:05:43;;;;;;;38.55;3.78;;;;;;;;;;5068950;28;20072;-72
2022/07/25 13:08:09;;;;;;;28.13;3.55;;;;;;;;;;5069274;28;20075;-73
2022/07/25 13:10:36;;;;;;;25.23;3.88;;;;;;;;;;5066176;28;20033;-73
2022/07/25 13:13:03;;;;;;;22.77;3.35;;;;;;;;;;5066731;28;20115;-72
2022/07/25 13:15:29;;;;;;;37.42;4.22;;;;;;;;;;5069942;28;20037;-72
2022/07/25 13:17:56;;;;;;;26.05;3.40;;;;;;;;;;5069384;28;20445;-72
2022/07/25 13:20:23;;;;;;;21.38;3.00;;;;;;;;;;5071407;28;20041;-73
2022/07/25 13:22:49;;;;;;;52.80;4.80;;;;;;;;;;5065943;28;20040;-73
2022/07/25 13:25:16;;;;;;;38.55;4.28;;;;;;;;;;5066097;28;20064;-73
2022/07/25 13:27:42;;;;;;;35.17;4.25;;;;;;;;;;5066118;28;20102;-73
2022/07/25 13:30:09;;;;;;;50.90;4.78;;;;;;;;;;5065818;28;20562;-73
2022/07/25 13:32:36;;;;;;;46.55;4.82;;;;;;;;;;5070293;28;20037;-73
2022/07/25 13:35:02;;;;;;;38.03;3.97;;;;;;;;;;5070035;28;20127;-73
2022/07/25 13:37:30;;;;;;;60.35;5.32;;;;;;;;;;5065822;28;20407;-73
2022/07/25 13:39:57;;;;;;;26.45;3.70;;;;;;;;;;5068557;28;20135;-73
2022/07/25 13:42:24;;;;;;;58.90;5.07;;;;;;;;;;5066140;28;20070;-73
2022/07/25 13:44:50;;;;;;;74.05;6.07;;;;;;;;;;5067370;28;20431;-74
2022/07/25 13:47:17;;;;;;;38.15;4.22;;;;;;;;;;5069529;28;20051;-74
2022/07/25 13:49:43;;;;;;;31.70;3.92;;;;;;;;;;5069131;28;20064;-74
2022/07/25 13:52:10;;;;;;;61.55;5.68;;;;;;;;;;5059555;28;20119;-75
2022/07/25 13:54:36;;;;;;;10.57;2.50;;;;;;;;;;5067800;28;20558;-74
2022/07/25 13:57:03;;;;;;;23.23;3.30;;;;;;;;;;5070109;28;20041;-73
2022/07/25 13:59:30;;;;;;;47.90;4.75;;;;;;;;;;5075136;28;20149;-75
2022/07/25 14:01:56;;;;;;;30.33;3.83;;;;;;;;;;5070158;28;20052;-74
2022/07/25 14:04:23;;;;;;;38.53;4.40;;;;;;;;;;5070085;28;20119;-75
2022/07/25 14:06:50;;;;;;;59.00;5.30;;;;;;;;;;5069289;28;20055;-75
2022/07/25 14:09:18;;;;;;;41.00;4.55;;;;;;;;;;5069380;28;20037;-74
2022/07/25 14:11:45;;;;;;;45.80;4.93;;;;;;;;;;5072112;28;20044;-75
2022/07/25 14:14:11;;;;;;;36.85;3.72;;;;;;;;;;5072727;28;20086;-75
2022/07/25 14:16:38;;;;;;;18.60;2.90;;;;;;;;;;5073490;28;20082;-74
2022/07/25 14:19:05;;;;;;;16.25;3.00;;;;;;;;;;5069791;28;20043;-73
2022/07/25 14:21:32;;;;;;;59.72;6.13;;;;;;;;;;5069783;28;20133;-79
2022/07/25 14:23:59;;;;;;;46.90;13.10;;;;;;;;;;5069858;28;20049;-76
2022/07/25 14:26:27;;;;;;;45.25;4.75;;;;;;;;;;5074114;28;20114;-77
2022/07/25 14:28:54;;;;;;;39.72;4.40;;;;;;;;;;5069392;28;20120;-80